CheckWX is a tool to help pilots better visualize weather data.  It is not intended as a substitute for an official pre-flight weather briefing.

11:07:37 UTC

EGPE METAR
Inverness Airport
Inverness, United Kingdom
Current

48 mins ago

EGPE 281020Z 22004KT 9999 FEW007 00/M01 Q0983
Observed
Jan-28 @ 10:20 UTC
Wind
  • 220° at 4 KTS
Visibility
10,000+ meters
Flight Rules
VFR
Cloud Levels
  • Few at 700' AGL
Temperature
C / 32°F
Dewpoint
-1°C / 30°F
Humidity
93%
Altimeter
29.03" Hg
Pressure
982.92 hPa
Previous

1 hour ago

EGPE 280950Z 22006KT 9999 FEW007 M00/M01 Q0983
Observed
Jan-28 @ 09:50 UTC
Wind
  • 220° at 6 KTS
Visibility
10,000+ meters
Flight Rules
VFR
Cloud Levels
  • Few at 700' AGL
Temperature
C / 32°F
Dewpoint
-1°C / 30°F
Humidity
93%
Altimeter
29.03" Hg
Pressure
982.92 hPa
Previous

2 hours ago

EGPE 280920Z 21007KT 9999 FEW007 M00/M01 Q0983
Observed
Jan-28 @ 09:20 UTC
Wind
  • 210° at 7 KTS
Visibility
10,000+ meters
Flight Rules
VFR
Cloud Levels
  • Few at 700' AGL
Temperature
C / 32°F
Dewpoint
-1°C / 30°F
Humidity
93%
Altimeter
29.03" Hg
Pressure
982.92 hPa